createdAt,value
2022-08-24T00:02:06.238Z,101149.91
2022-08-24T00:05:12.713Z,101140.38
2022-08-24T00:08:17.833Z,101151.63
2022-08-24T00:11:20.399Z,101138.22
2022-08-24T00:14:22.527Z,101127.56
2022-08-24T00:17:25.531Z,101122.88
2022-08-24T00:20:27.916Z,101113.28
2022-08-24T00:23:31.143Z,101114.19
2022-08-24T00:26:33.455Z,101102.00
2022-08-24T00:29:36.094Z,101100.63
2022-08-24T00:32:38.282Z,101102.34
2022-08-24T00:35:40.480Z,101085.63
2022-08-24T00:38:42.648Z,101088.38
2022-08-24T00:41:47.164Z,101076.59
2022-08-24T00:44:49.357Z,101068.09
2022-08-24T00:47:59.458Z,101061.59
2022-08-24T00:51:09.168Z,101063.28
2022-08-24T00:54:16.995Z,101060.53
2022-08-24T00:57:22.971Z,101057.56
2022-08-24T01:00:31.645Z,101047.28
2022-08-24T01:03:36.112Z,101038.16
2022-08-24T01:06:38.545Z,101047.50
2022-08-24T01:09:41.490Z,101042.00
2022-08-24T01:13:00.114Z,101040.34
2022-08-24T01:16:07.323Z,101011.25
2022-08-24T01:19:38.306Z,101027.16
2022-08-24T01:23:06.275Z,101028.59
2022-08-24T01:26:13.154Z,101017.84
2022-08-24T01:29:29.116Z,101015.91
2022-08-24T01:32:33.187Z,101017.56
2022-08-24T01:35:38.912Z,101015.91
2022-08-24T01:38:41.625Z,101017.00
2022-08-24T01:41:43.676Z,101018.91
2022-08-24T01:44:46.929Z,101014.50
2022-08-24T01:47:49.255Z,101010.31
2022-08-24T01:50:52.815Z,101021.16
2022-08-24T01:53:56.863Z,101022.03
2022-08-24T01:56:59.778Z,101020.31
2022-08-24T02:00:02.657Z,101015.59
2022-08-24T02:03:15.148Z,101017.84
2022-08-24T02:06:22.513Z,101022.50
2022-08-24T02:09:25.036Z,101025.84
2022-08-24T02:12:36.463Z,101026.09
2022-08-24T02:15:42.673Z,101016.16
2022-08-24T02:18:47.083Z,101015.31
2022-08-24T02:21:49.445Z,101015.31
2022-08-24T02:24:51.838Z,101002.94
2022-08-24T02:27:53.899Z,101009.00
2022-08-24T02:30:56.427Z,100997.41
2022-08-24T02:33:59.006Z,101002.66
2022-08-24T02:37:01.300Z,100995.22
2022-08-24T02:40:05.959Z,100988.06
2022-08-24T02:43:08.062Z,100991.06
2022-08-24T02:46:18.309Z,100986.66
2022-08-24T02:49:21.840Z,100994.66
2022-08-24T02:52:25.109Z,101003.97
2022-08-24T02:55:27.327Z,101007.84
2022-08-24T02:58:29.484Z,101003.66
2022-08-24T03:01:32.877Z,101012.72
2022-08-24T03:04:35.150Z,101014.44
2022-08-24T03:07:39.257Z,101008.59
2022-08-24T03:10:41.709Z,101009.41
2022-08-24T03:13:44.017Z,101013.50
2022-08-24T03:16:47.238Z,101008.00
2022-08-24T03:19:49.388Z,101019.59
2022-08-24T03:22:52.636Z,101016.00
2022-08-24T03:25:56.545Z,101022.56
2022-08-24T03:28:59.031Z,101029.78
2022-08-24T03:32:02.835Z,101007.31
2022-08-24T03:35:05.766Z,101028.91
2022-08-24T03:38:07.950Z,101033.84
2022-08-24T03:41:11.289Z,101026.09
2022-08-24T03:44:13.546Z,101036.59
2022-08-24T03:47:15.678Z,101036.81
2022-08-24T03:50:18.940Z,101039.34
2022-08-24T03:53:21.559Z,101045.00
2022-08-24T03:56:23.934Z,101039.75
2022-08-24T03:59:26.234Z,101042.50
2022-08-24T04:02:33.118Z,101036.16
2022-08-24T04:05:37.179Z,101039.56
2022-08-24T04:08:41.489Z,101042.09
2022-08-24T04:11:45.639Z,101043.75
2022-08-24T04:14:52.662Z,101049.84
2022-08-24T04:17:55.026Z,101053.44
2022-08-24T04:20:57.527Z,101049.59
2022-08-24T04:24:01.402Z,101055.69
2022-08-24T04:27:03.836Z,101051.25
2022-08-24T04:30:08.104Z,101042.16
2022-08-24T04:33:25.200Z,101034.66
2022-08-24T04:36:27.373Z,101037.00
2022-08-24T04:39:31.055Z,101044.75
2022-08-24T04:42:37.561Z,101029.56
2022-08-24T04:45:43.716Z,101040.69
2022-08-24T04:48:47.980Z,101048.94
2022-08-24T04:51:51.576Z,101050.03
2022-08-24T04:54:53.897Z,101056.34
2022-08-24T04:57:58.609Z,101050.59
2022-08-24T05:01:01.300Z,101058.28
2022-08-24T05:04:05.791Z,101054.66
2022-08-24T05:07:08.536Z,101048.25
2022-08-24T05:10:11.508Z,101054.94
2022-08-24T05:13:15.322Z,101046.34
2022-08-24T05:16:18.185Z,101061.13
2022-08-24T05:19:21.365Z,101047.63
2022-08-24T05:22:23.611Z,101048.81
2022-08-24T05:25:29.343Z,101046.06
2022-08-24T05:28:33.776Z,101039.59
2022-08-24T05:31:36.041Z,101047.38
2022-08-24T05:34:43.586Z,101043.78
2022-08-24T05:37:45.918Z,101042.97
2022-08-24T05:40:51.366Z,101041.59
2022-08-24T05:43:57.646Z,101047.97
2022-08-24T05:47:01.391Z,101054.53
2022-08-24T05:50:04.848Z,101051.78
2022-08-24T05:53:06.879Z,101057.63
2022-08-24T05:56:13.446Z,101061.81
2022-08-24T05:59:18.099Z,101066.47
2022-08-24T06:02:21.228Z,101068.06
2022-08-24T06:05:24.137Z,101057.28
2022-08-24T06:08:26.574Z,101066.97
2022-08-24T06:11:32.749Z,101068.06
2022-08-24T06:14:36.701Z,101074.13
2022-08-24T06:17:40.517Z,101071.16
2022-08-24T06:20:43.298Z,101063.41
2022-08-24T06:23:49.674Z,101061.63
2022-08-24T06:27:11.623Z,101054.97
2022-08-24T06:30:14.150Z,101048.72
2022-08-24T06:33:39.938Z,101047.38
2022-08-24T06:36:42.393Z,101053.22
2022-08-24T06:39:44.886Z,101050.47
2022-08-24T06:42:48.694Z,101054.09
2022-08-24T06:46:20.839Z,101048.38
2022-08-24T06:49:25.883Z,101054.69
2022-08-24T06:52:28.636Z,101049.69
2022-08-24T06:55:31.597Z,101054.53
2022-08-24T06:58:34.937Z,101048.25
2022-08-24T07:01:40.785Z,101046.34
2022-08-24T07:04:43.122Z,101030.91
2022-08-24T07:08:08.768Z,101036.47
2022-08-24T07:11:17.813Z,101040.97
2022-08-24T07:14:20.398Z,101035.78
2022-08-24T07:17:23.718Z,101026.19
2022-08-24T07:20:26.051Z,101021.75
2022-08-24T07:23:44.630Z,101024.59
2022-08-24T07:26:49.001Z,101019.66
2022-08-24T07:30:16.166Z,101029.19
2022-08-24T07:33:17.263Z,101019.25
2022-08-24T07:36:22.467Z,101020.13
2022-08-24T07:39:25.669Z,101021.03
2022-08-24T07:42:32.015Z,101019.13
2022-08-24T07:45:35.895Z,101011.69
2022-08-24T07:48:38.321Z,101016.69
2022-08-24T07:51:44.856Z,101026.41
2022-08-24T07:54:49.790Z,101025.34
2022-08-24T07:57:52.343Z,101015.97
2022-08-24T08:00:56.136Z,101003.63
2022-08-24T08:03:58.385Z,101016.84
2022-08-24T08:07:01.914Z,101007.00
2022-08-24T08:10:08.316Z,101005.06
2022-08-24T08:13:12.062Z,101003.19
2022-08-24T08:16:14.233Z,101002.75
2022-08-24T08:19:17.507Z,101004.13
2022-08-24T08:22:38.571Z,100996.78
2022-08-24T08:26:18.317Z,100986.63
2022-08-24T08:29:34.312Z,100996.06
2022-08-24T08:32:37.191Z,100983.88
2022-08-24T08:35:40.707Z,100979.75
2022-08-24T08:38:43.194Z,100978.72
2022-08-24T08:42:06.488Z,100988.13
2022-08-24T08:45:27.662Z,100981.28
2022-08-24T08:49:15.519Z,100982.34
2022-08-24T08:52:55.045Z,100982.34
2022-08-24T08:56:15.414Z,100986.50
2022-08-24T08:59:32.881Z,100986.28
2022-08-24T09:03:00.074Z,100984.66
2022-08-24T09:06:24.651Z,100992.72
2022-08-24T09:09:51.933Z,100982.75
2022-08-24T09:13:06.151Z,100997.72
2022-08-24T09:16:18.176Z,100993.34
2022-08-24T09:19:48.834Z,100975.66
2022-08-24T09:23:05.062Z,100967.69
2022-08-24T09:26:27.093Z,100968.28
2022-08-24T09:29:46.113Z,100964.94
2022-08-24T09:33:09.258Z,100955.31
2022-08-24T09:36:36.976Z,100939.88
2022-08-24T09:39:54.381Z,100962.59
2022-08-24T09:43:18.006Z,100968.19
2022-08-24T09:46:28.863Z,100962.16
2022-08-24T09:49:52.832Z,100966.31
2022-08-24T09:53:19.781Z,100971.31
2022-08-24T09:56:40.026Z,100959.16
2022-08-24T09:59:53.969Z,100949.50
2022-08-24T10:03:01.847Z,100952.81
2022-08-24T10:06:22.548Z,100951.41
2022-08-24T10:09:45.746Z,100951.16
2022-08-24T10:13:12.435Z,100955.06
2022-08-24T10:16:14.939Z,100947.06
2022-08-24T10:19:58.844Z,100952.28
2022-08-24T10:23:19.506Z,100950.63
2022-08-24T10:26:46.051Z,100944.06
2022-08-24T10:30:27.808Z,100943.00
2022-08-24T10:33:39.489Z,100928.03
2022-08-24T10:36:56.774Z,100936.91
2022-08-24T10:40:19.472Z,100936.03
2022-08-24T10:43:36.715Z,100935.25
2022-08-24T10:46:53.514Z,100928.09
2022-08-24T10:50:39.557Z,100928.69
2022-08-24T10:53:49.278Z,100924.84
2022-08-24T10:57:12.270Z,100933.44
2022-08-24T11:00:22.948Z,100930.13
2022-08-24T11:03:28.023Z,100929.03
2022-08-24T11:06:36.388Z,100933.44
2022-08-24T11:09:53.472Z,100931.28
2022-08-24T11:12:56.227Z,100921.88
2022-08-24T11:16:01.907Z,100921.06
2022-08-24T11:19:13.302Z,100917.75
2022-08-24T11:22:58.543Z,100921.88
2022-08-24T11:26:12.918Z,100908.34
2022-08-24T11:29:15.117Z,100900.88
2022-08-24T11:32:46.486Z,100916.66
2022-08-24T11:35:48.627Z,100908.94
2022-08-24T11:39:23.996Z,100895.66
2022-08-24T11:42:42.214Z,100897.84
2022-08-24T11:46:02.831Z,100907.53
2022-08-24T11:49:47.041Z,100888.22
2022-08-24T11:53:12.519Z,100892.66
2022-08-24T11:56:21.546Z,100895.94
2022-08-24T12:00:05.742Z,100895.16
2022-08-24T12:03:44.520Z,100904.28
2022-08-24T12:07:11.570Z,100909.22
2022-08-24T12:10:38.345Z,100907.56
2022-08-24T12:14:18.598Z,100879.34
2022-08-24T12:17:23.782Z,100904.03
2022-08-24T12:20:43.608Z,100893.72
2022-08-24T12:23:54.724Z,100902.34
2022-08-24T12:27:04.011Z,100886.59
2022-08-24T12:30:13.700Z,100899.88
2022-08-24T12:33:18.864Z,100908.44
2022-08-24T12:36:51.692Z,100889.59
2022-08-24T12:40:13.998Z,100900.97
2022-08-24T12:43:31.481Z,100905.94
2022-08-24T12:46:34.852Z,100904.56
2022-08-24T12:49:50.822Z,100910.13
2022-08-24T12:53:14.658Z,100908.16
2022-08-24T12:56:50.224Z,100915.06
2022-08-24T12:59:57.521Z,100909.53
2022-08-24T13:03:04.895Z,100918.66
2022-08-24T13:06:11.925Z,100919.22
2022-08-24T13:09:37.084Z,100922.56
2022-08-24T13:12:42.338Z,100914.25
2022-08-24T13:15:54.479Z,100933.63
2022-08-24T13:19:32.090Z,100932.78
2022-08-24T13:22:46.773Z,100920.31
2022-08-24T13:25:52.011Z,100931.97
2022-08-24T13:28:56.861Z,100924.50
2022-08-24T13:32:00.430Z,100922.25
2022-08-24T13:35:37.267Z,100929.44
2022-08-24T13:39:13.461Z,100924.19
2022-08-24T13:42:23.538Z,100923.94
2022-08-24T13:45:52.705Z,100937.50
2022-08-24T13:49:04.782Z,100932.78
2022-08-24T13:52:45.367Z,100936.94
2022-08-24T13:55:47.480Z,100931.66
2022-08-24T13:59:05.411Z,100933.88
2022-08-24T14:02:14.871Z,100937.75
2022-08-24T14:05:45.869Z,100939.63
2022-08-24T14:09:11.537Z,100943.19
2022-08-24T14:12:45.824Z,100944.03
2022-08-24T14:16:18.541Z,100944.56
2022-08-24T14:19:47.422Z,100942.03
2022-08-24T14:23:11.420Z,100941.19
2022-08-24T14:26:37.042Z,100943.66
2022-08-24T14:29:41.986Z,100930.13
2022-08-24T14:33:08.265Z,100939.81
2022-08-24T14:36:24.834Z,100938.72
2022-08-24T14:39:39.023Z,100937.06
2022-08-24T14:43:03.877Z,100927.38
2022-08-24T14:46:21.095Z,100945.94
2022-08-24T14:49:39.135Z,100943.16
2022-08-24T14:52:51.208Z,100943.69
2022-08-24T14:56:25.210Z,100942.06
2022-08-24T14:59:38.234Z,100942.06
2022-08-24T15:02:55.864Z,100947.28
2022-08-24T15:06:26.234Z,100951.69
2022-08-24T15:09:36.628Z,100950.06
2022-08-24T15:12:44.293Z,100937.28
2022-08-24T15:15:55.869Z,100942.56
2022-08-24T15:19:06.595Z,100946.44
2022-08-24T15:22:21.994Z,100943.00
2022-08-24T15:25:37.076Z,100953.81
2022-08-24T15:28:55.271Z,100958.00
2022-08-24T15:32:07.695Z,100957.16
2022-08-24T15:35:28.436Z,100959.38
2022-08-24T15:38:30.467Z,100964.06
2022-08-24T15:41:38.141Z,100958.84
2022-08-24T15:44:43.848Z,100959.88
2022-08-24T15:47:51.905Z,100952.94
2022-08-24T15:50:55.991Z,100960.69
2022-08-24T15:53:58.438Z,100972.81
2022-08-24T15:57:18.680Z,100961.75
2022-08-24T16:00:55.942Z,100958.41
2022-08-24T16:04:01.257Z,100968.34
2022-08-24T16:07:03.615Z,100968.09
2022-08-24T16:10:12.408Z,100968.88
2022-08-24T16:13:20.930Z,100969.44
2022-08-24T16:16:33.594Z,100970.81
2022-08-24T16:19:35.699Z,100973.28
2022-08-24T16:22:58.469Z,100971.59
2022-08-24T16:26:22.552Z,100982.91
2022-08-24T16:29:41.445Z,100978.19
2022-08-24T16:32:57.933Z,100977.06
2022-08-24T16:36:03.917Z,100980.28
2022-08-24T16:39:06.167Z,100981.38
2022-08-24T16:42:15.935Z,100982.38
2022-08-24T16:45:21.813Z,100984.03
2022-08-24T16:48:23.946Z,100986.72
2022-08-24T16:51:26.245Z,100989.47
2022-08-24T16:54:28.699Z,100995.81
2022-08-24T16:57:36.522Z,100997.44
2022-08-24T17:00:38.633Z,100995.47
2022-08-24T17:03:41.081Z,100993.78
2022-08-24T17:06:43.481Z,101001.22
2022-08-24T17:09:47.333Z,100999.81
2022-08-24T17:12:49.800Z,101001.50
2022-08-24T17:15:53.823Z,101013.59
2022-08-24T17:18:59.606Z,101005.81
2022-08-24T17:22:01.794Z,101014.38
2022-08-24T17:25:05.345Z,101022.06
2022-08-24T17:28:10.559Z,101022.03
2022-08-24T17:31:13.640Z,101024.47
2022-08-24T17:34:16.379Z,101029.91
2022-08-24T17:37:19.111Z,101031.81
2022-08-24T17:40:25.124Z,101038.34
2022-08-24T17:43:27.527Z,101044.41
2022-08-24T17:46:29.819Z,101043.00
2022-08-24T17:49:32.927Z,101038.00
2022-08-24T17:52:35.051Z,101031.53
2022-08-24T17:55:37.149Z,101045.03
2022-08-24T17:58:59.346Z,101051.97
2022-08-24T18:02:07.355Z,101050.56
2022-08-24T18:05:12.229Z,101051.09
2022-08-24T18:08:14.565Z,101049.19
2022-08-24T18:11:16.919Z,101054.88
2022-08-24T18:14:19.194Z,101051.03
2022-08-24T18:17:39.033Z,101059.56
2022-08-24T18:20:42.085Z,101064.75
2022-08-24T18:23:44.381Z,101061.69
2022-08-24T18:26:48.683Z,101049.75
2022-08-24T18:29:54.839Z,101044.19
2022-08-24T18:32:57.983Z,101052.50
2022-08-24T18:36:00.213Z,101033.59
2022-08-24T18:39:06.884Z,101047.69
2022-08-24T18:42:11.028Z,101052.97
2022-08-24T18:45:13.276Z,101045.19
2022-08-24T18:48:15.651Z,101034.63
2022-08-24T18:51:20.314Z,101045.19
2022-08-24T18:54:26.544Z,101044.38
2022-08-24T18:57:28.984Z,101045.09
2022-08-24T19:00:31.620Z,101053.72
2022-08-24T19:03:34.554Z,101054.75
2022-08-24T19:06:36.670Z,101053.91
2022-08-24T19:09:38.801Z,101055.25
2022-08-24T19:12:47.033Z,101067.41
2022-08-24T19:15:49.811Z,101050.56
2022-08-24T19:18:52.344Z,101060.47
2022-08-24T19:21:54.695Z,101059.94
2022-08-24T19:24:58.602Z,101055.25
2022-08-24T19:28:01.529Z,101057.38
2022-08-24T19:31:07.516Z,101053.75
2022-08-24T19:34:10.224Z,101054.28
2022-08-24T19:37:15.533Z,101059.81
2022-08-24T19:40:21.543Z,101055.66
2022-08-24T19:43:28.715Z,101052.00
2022-08-24T19:46:31.496Z,101066.03
2022-08-24T19:49:34.574Z,101062.19
2022-08-24T19:52:38.270Z,101056.06
2022-08-24T19:55:40.499Z,101069.34
2022-08-24T19:58:59.650Z,101074.03
2022-08-24T20:02:01.848Z,101056.00
2022-08-24T20:05:04.197Z,101069.00
2022-08-24T20:08:06.400Z,101070.00
2022-08-24T20:11:09.340Z,101065.53
2022-08-24T20:14:11.371Z,101065.72
2022-08-24T20:17:13.543Z,101072.63
2022-08-24T20:20:19.864Z,101065.13
2022-08-24T20:23:22.099Z,101067.13
2022-08-24T20:26:29.768Z,101071.44
2022-08-24T20:29:32.029Z,101069.78
2022-08-24T20:32:34.403Z,101074.22
2022-08-24T20:35:37.149Z,101068.91
2022-08-24T20:38:40.513Z,101070.88
2022-08-24T20:41:44.293Z,101068.38
2022-08-24T20:44:46.370Z,101063.91
2022-08-24T20:47:51.490Z,101084.88
2022-08-24T20:50:54.019Z,101068.81
2022-08-24T20:53:56.153Z,101100.06
2022-08-24T20:56:58.859Z,101096.50
2022-08-24T21:00:00.957Z,101103.09
2022-08-24T21:03:03.283Z,101091.09
2022-08-24T21:06:07.253Z,101091.31
2022-08-24T21:09:14.062Z,101091.31
2022-08-24T21:12:16.628Z,101093.84
2022-08-24T21:15:19.149Z,101075.72
2022-08-24T21:18:21.526Z,101091.31
2022-08-24T21:21:23.652Z,101092.06
2022-08-24T21:24:26.105Z,101101.81
2022-08-24T21:27:28.347Z,101096.00
2022-08-24T21:30:30.959Z,101096.91
2022-08-24T21:33:55.808Z,101099.34
2022-08-24T21:36:58.158Z,101092.75
2022-08-24T21:40:02.198Z,101100.72
2022-08-24T21:43:09.283Z,101090.97
2022-08-24T21:46:18.038Z,101090.09
2022-08-24T21:49:20.897Z,101115.59
2022-08-24T21:52:23.283Z,101108.41
2022-08-24T21:55:27.694Z,101108.66
2022-08-24T21:58:29.977Z,101100.06
2022-08-24T22:01:32.737Z,101108.41
2022-08-24T22:04:34.945Z,101102.25
2022-08-24T22:07:37.718Z,101104.75
2022-08-24T22:10:39.784Z,101108.84
2022-08-24T22:13:42.760Z,101103.84
2022-08-24T22:16:45.491Z,101093.56
2022-08-24T22:19:47.528Z,101100.00
2022-08-24T22:22:49.574Z,101101.91
2022-08-24T22:25:53.598Z,101108.25
2022-08-24T22:28:56.882Z,101101.31
2022-08-24T22:31:59.052Z,101099.06
2022-08-24T22:35:01.159Z,101091.88
2022-08-24T22:38:03.458Z,101085.19
2022-08-24T22:41:08.003Z,101081.13
2022-08-24T22:44:19.231Z,101087.81
2022-08-24T22:47:21.297Z,101081.94
2022-08-24T22:50:23.434Z,101083.88
2022-08-24T22:53:25.872Z,101075.28
2022-08-24T22:56:31.217Z,101088.78
2022-08-24T22:59:40.101Z,101081.28
2022-08-24T23:02:42.337Z,101074.84
2022-08-24T23:05:44.646Z,101083.19
2022-08-24T23:08:46.782Z,101089.53
2022-08-24T23:11:48.995Z,101088.44
2022-08-24T23:14:52.462Z,101095.59
2022-08-24T23:17:54.606Z,101089.28
2022-08-24T23:20:57.084Z,101091.78
2022-08-24T23:23:59.210Z,101093.94
2022-08-24T23:27:02.784Z,101089.28
2022-08-24T23:30:07.766Z,101090.03
2022-08-24T23:33:09.935Z,101083.94
2022-08-24T23:36:16.123Z,101090.19
2022-08-24T23:39:19.253Z,101091.84
2022-08-24T23:42:21.395Z,101091.84
2022-08-24T23:45:28.493Z,101081.09
2022-08-24T23:48:33.527Z,101077.75
2022-08-24T23:51:36.564Z,101086.09
2022-08-24T23:54:38.711Z,101083.59
2022-08-24T23:57:41.276Z,101075.41
